Time;durP1;ratioP1;P1;durP2;ratioP2;P2;SDS_P1;SDS_P2;PMS_P1;PMS_P2;Temp;Humidity;BMP_temperature;BMP_pressure;BME280_temperature;BME280_humidity;BME280_pressure;Samples;Min_cycle;Max_cycle;Signal;HPM_P1;HPM_P2
2022/07/20 00:00:45;;;;;;;;;;;18.70;99.90;;;;;;4590323;19;19933;-32
2022/07/20 00:02:21;;;;;;;;;;;18.70;99.90;;;;;;4589161;19;19911;-31
2022/07/20 00:03:52;;;;;;;;;;;18.70;99.90;;;;;;4590169;19;19922;-32
2022/07/20 00:05:23;;;;;;;;;;;18.70;99.90;;;;;;4590705;19;19906;-32
2022/07/20 00:06:55;;;;;;;;;;;18.70;99.90;;;;;;4591008;19;19923;-32
2022/07/20 00:12:05;;;;;;;;;;;18.70;99.90;;;;;;4590427;19;20350;-34
2022/07/20 00:13:36;;;;;;;;;;;18.70;99.90;;;;;;4590521;19;20324;-32
2022/07/20 00:15:07;;;;;;;;;;;18.70;99.90;;;;;;4590079;19;19922;-32
2022/07/20 00:16:39;;;;;;;;;;;18.70;99.90;;;;;;4591764;19;20234;-32
2022/07/20 00:18:10;;;;;;;;;;;18.70;99.90;;;;;;4594581;19;20330;-32
2022/07/20 00:19:41;;;;;;;;;;;18.70;99.90;;;;;;4594057;19;19918;-32
2022/07/20 00:21:12;;;;;;;;;;;18.70;99.90;;;;;;4595055;19;19911;-33
2022/07/20 00:22:44;;;;;;;;;;;18.70;99.90;;;;;;4594826;19;19915;-32
2022/07/20 00:24:15;;;;;;;;;;;18.70;99.90;;;;;;4594880;19;19928;-32
2022/07/20 00:25:45;;;;;;;;;;;18.60;99.90;;;;;;4594908;19;19915;-32
2022/07/20 00:27:16;;;;;;;;;;;18.60;99.90;;;;;;4595267;19;19936;-33
2022/07/20 00:28:50;;;;;;;;;;;18.60;99.90;;;;;;4594487;19;20349;-34
2022/07/20 00:30:21;;;;;;;;;;;18.60;99.90;;;;;;4594705;19;20304;-34
2022/07/20 00:31:52;;;;;;;;;;;18.60;99.90;;;;;;4594834;19;19915;-32
2022/07/20 00:33:23;;;;;;;;;;;18.60;99.90;;;;;;4594278;19;20258;-33
2022/07/20 00:34:54;;;;;;;;;;;18.60;99.90;;;;;;4594801;19;19927;-33
2022/07/20 00:36:25;;;;;;;;;;;18.60;99.90;;;;;;4594848;19;19911;-32
2022/07/20 00:37:56;;;;;;;;;;;18.60;99.90;;;;;;4595117;19;20259;-32
2022/07/20 00:39:27;;;;;;;;;;;18.50;99.90;;;;;;4593751;19;19918;-33
2022/07/20 00:40:58;;;;;;;;;;;18.60;99.90;;;;;;4594996;19;19974;-32
2022/07/20 00:42:29;;;;;;;;;;;18.60;99.90;;;;;;4594391;19;19938;-33
2022/07/20 00:44:00;;;;;;;;;;;18.50;99.90;;;;;;4594956;19;19959;-32
2022/07/20 00:45:31;;;;;;;;;;;18.50;99.90;;;;;;4594206;19;19918;-32
2022/07/20 00:47:03;;;;;;;;;;;18.50;99.90;;;;;;4594776;19;19919;-32
2022/07/20 00:48:34;;;;;;;;;;;18.50;99.90;;;;;;4594910;19;19974;-32
2022/07/20 00:50:05;;;;;;;;;;;18.50;99.90;;;;;;4594065;19;19970;-34
2022/07/20 00:51:37;;;;;;;;;;;18.50;99.90;;;;;;4593214;19;19974;-32
2022/07/20 00:53:09;;;;;;;;;;;18.50;99.90;;;;;;4594112;19;19918;-31
2022/07/20 00:54:39;;;;;;;;;;;18.50;99.90;;;;;;4594356;19;19925;-34
2022/07/20 00:56:10;;;;;;;;;;;18.50;99.90;;;;;;4592845;19;19923;-32
2022/07/20 00:57:41;;;;;;;;;;;18.50;99.90;;;;;;4594403;19;19913;-31
2022/07/20 00:59:13;;;;;;;;;;;18.50;99.90;;;;;;4593761;19;19919;-33
2022/07/20 01:00:44;;;;;;;;;;;18.50;99.90;;;;;;4594893;19;20369;-31
2022/07/20 01:02:15;;;;;;;;;;;18.50;99.90;;;;;;4594016;19;19915;-34
2022/07/20 01:03:45;;;;;;;;;;;18.50;99.90;;;;;;4594308;19;20258;-32
2022/07/20 01:05:17;;;;;;;;;;;18.50;99.90;;;;;;4593147;19;19978;-33
2022/07/20 01:06:48;;;;;;;;;;;18.50;99.90;;;;;;4592718;19;19919;-32
2022/07/20 01:08:19;;;;;;;;;;;18.50;99.90;;;;;;4593308;19;19919;-34
2022/07/20 01:09:50;;;;;;;;;;;18.50;99.90;;;;;;4593891;19;19929;-32
2022/07/20 01:11:21;;;;;;;;;;;18.40;99.90;;;;;;4593103;19;19953;-33
2022/07/20 01:12:52;;;;;;;;;;;18.50;99.90;;;;;;4593220;19;19910;-32
2022/07/20 01:14:23;;;;;;;;;;;18.40;99.90;;;;;;4593520;19;19915;-32
2022/07/20 01:15:54;;;;;;;;;;;18.50;99.90;;;;;;4592645;19;19926;-32
2022/07/20 01:17:25;;;;;;;;;;;18.40;99.90;;;;;;4593725;19;19982;-32
2022/07/20 01:18:56;;;;;;;;;;;18.40;99.90;;;;;;4593323;19;19922;-32
2022/07/20 01:20:27;;;;;;;;;;;18.40;99.90;;;;;;4594020;19;19918;-33
2022/07/20 01:21:58;;;;;;;;;;;18.40;99.90;;;;;;4594474;19;19942;-31
2022/07/20 01:23:32;;;;;;;;;;;18.40;99.90;;;;;;4593274;19;19930;-32
2022/07/20 01:25:03;;;;;;;;;;;18.40;99.90;;;;;;4591021;19;19919;-34
2022/07/20 01:26:34;;;;;;;;;;;18.40;99.90;;;;;;4593156;19;19915;-34
2022/07/20 01:28:05;;;;;;;;;;;18.40;99.90;;;;;;4591744;19;19917;-32
2022/07/20 01:29:36;;;;;;;;;;;18.40;99.90;;;;;;4592094;19;19934;-32
2022/07/20 01:31:07;;;;;;;;;;;18.30;99.90;;;;;;4592898;19;19914;-32
2022/07/20 01:32:38;;;;;;;;;;;18.30;99.90;;;;;;4593867;19;19985;-31
2022/07/20 01:34:09;;;;;;;;;;;18.30;99.90;;;;;;4593559;19;19922;-32
2022/07/20 01:35:40;;;;;;;;;;;18.30;99.90;;;;;;4593268;19;19919;-32
2022/07/20 01:37:11;;;;;;;;;;;18.30;99.90;;;;;;4593606;19;19914;-32
2022/07/20 01:38:42;;;;;;;;;;;18.30;99.90;;;;;;4593409;19;19930;-32
2022/07/20 01:40:13;;;;;;;;;;;18.30;99.90;;;;;;4592140;19;19974;-31
2022/07/20 01:41:47;;;;;;;;;;;18.30;99.90;;;;;;4593283;19;19959;-31
2022/07/20 01:43:18;;;;;;;;;;;18.30;99.90;;;;;;4593596;19;20351;-33
2022/07/20 01:44:49;;;;;;;;;;;18.30;99.90;;;;;;4593333;19;19915;-33
2022/07/20 01:46:20;;;;;;;;;;;18.30;99.90;;;;;;4592961;19;19919;-32
2022/07/20 01:47:51;;;;;;;;;;;18.30;99.90;;;;;;4592949;19;19926;-31
2022/07/20 01:49:22;;;;;;;;;;;18.30;99.90;;;;;;4593262;19;20336;-32
2022/07/20 01:50:53;;;;;;;;;;;18.30;99.90;;;;;;4593200;19;19934;-32
2022/07/20 01:52:24;;;;;;;;;;;18.30;99.90;;;;;;4592947;19;20249;-34
2022/07/20 01:53:55;;;;;;;;;;;18.30;99.90;;;;;;4592890;19;20264;-34
2022/07/20 01:55:26;;;;;;;;;;;18.20;99.90;;;;;;4593004;19;19911;-32
2022/07/20 01:56:57;;;;;;;;;;;18.20;99.90;;;;;;4591947;19;20249;-32
2022/07/20 01:58:28;;;;;;;;;;;18.20;99.90;;;;;;4592875;19;19926;-32
2022/07/20 01:59:59;;;;;;;;;;;18.20;99.90;;;;;;4592189;19;19932;-32
2022/07/20 02:01:30;;;;;;;;;;;18.20;99.90;;;;;;4592887;19;19918;-32
2022/07/20 02:03:01;;;;;;;;;;;18.20;99.90;;;;;;4591406;19;20325;-34
2022/07/20 02:04:32;;;;;;;;;;;18.20;99.90;;;;;;4592446;19;19948;-32
2022/07/20 02:06:03;;;;;;;;;;;18.20;99.90;;;;;;4593338;19;19910;-32
2022/07/20 02:07:35;;;;;;;;;;;18.20;99.90;;;;;;4592863;19;20410;-32
2022/07/20 02:09:06;;;;;;;;;;;18.20;99.90;;;;;;4592582;19;20329;-32
2022/07/20 02:10:37;;;;;;;;;;;18.20;99.90;;;;;;4592593;19;19910;-32
2022/07/20 02:12:08;;;;;;;;;;;18.10;99.90;;;;;;4592642;19;19922;-32
2022/07/20 02:13:39;;;;;;;;;;;18.10;99.90;;;;;;4592749;19;19916;-33
2022/07/20 02:15:10;;;;;;;;;;;18.10;99.90;;;;;;4592673;19;19921;-31
2022/07/20 02:16:41;;;;;;;;;;;18.10;99.90;;;;;;4592844;19;20340;-31
2022/07/20 02:18:12;;;;;;;;;;;18.10;99.90;;;;;;4592874;19;19919;-31
2022/07/20 02:19:43;;;;;;;;;;;18.10;99.90;;;;;;4591437;19;19910;-32
2022/07/20 02:21:15;;;;;;;;;;;18.10;99.90;;;;;;4592260;19;19918;-32
2022/07/20 02:22:45;;;;;;;;;;;18.10;99.90;;;;;;4590865;19;20358;-32
2022/07/20 02:24:17;;;;;;;;;;;18.00;99.90;;;;;;4591955;19;20249;-32
2022/07/20 02:25:48;;;;;;;;;;;18.00;99.90;;;;;;4592706;19;19910;-32
2022/07/20 02:27:18;;;;;;;;;;;18.00;99.90;;;;;;4592206;19;19919;-32
2022/07/20 02:28:50;;;;;;;;;;;18.00;99.90;;;;;;4592345;19;19919;-32
2022/07/20 02:30:21;;;;;;;;;;;18.00;99.90;;;;;;4593046;19;19911;-32
2022/07/20 02:31:52;;;;;;;;;;;18.00;99.90;;;;;;4592148;19;19927;-33
2022/07/20 02:33:23;;;;;;;;;;;18.00;99.90;;;;;;4591421;19;19982;-32
2022/07/20 02:34:53;;;;;;;;;;;18.00;99.90;;;;;;4591893;19;19934;-33
2022/07/20 02:36:25;;;;;;;;;;;18.00;99.90;;;;;;4591915;19;19915;-32
2022/07/20 02:37:56;;;;;;;;;;;18.00;99.90;;;;;;4592105;19;19914;-33
2022/07/20 02:39:26;;;;;;;;;;;18.00;99.90;;;;;;4589828;19;19922;-33
2022/07/20 02:40:57;;;;;;;;;;;18.00;99.90;;;;;;4589260;19;19938;-32
2022/07/20 02:42:29;;;;;;;;;;;18.00;99.90;;;;;;4591176;19;19925;-32
2022/07/20 02:43:59;;;;;;;;;;;18.00;99.90;;;;;;4592239;19;20329;-32
2022/07/20 02:45:31;;;;;;;;;;;18.00;99.90;;;;;;4590744;19;19931;-32
2022/07/20 02:47:02;;;;;;;;;;;18.00;99.90;;;;;;4591541;19;20325;-32
2022/07/20 02:48:33;;;;;;;;;;;18.00;99.90;;;;;;4591873;19;19927;-32
2022/07/20 02:50:04;;;;;;;;;;;18.00;99.90;;;;;;4592132;19;19938;-31
2022/07/20 02:51:35;;;;;;;;;;;18.00;99.90;;;;;;4591323;19;19918;-32
2022/07/20 02:53:06;;;;;;;;;;;18.00;99.90;;;;;;4590403;19;19925;-32
2022/07/20 02:54:37;;;;;;;;;;;18.00;99.90;;;;;;4591459;19;19914;-33
2022/07/20 02:56:08;;;;;;;;;;;18.00;99.90;;;;;;4590945;19;19927;-32
2022/07/20 02:57:39;;;;;;;;;;;18.00;99.90;;;;;;4592216;19;20234;-32
2022/07/20 02:59:10;;;;;;;;;;;18.00;99.90;;;;;;4591315;19;19970;-31
2022/07/20 03:00:41;;;;;;;;;;;17.90;99.90;;;;;;4591720;19;19922;-34
2022/07/20 03:02:12;;;;;;;;;;;17.90;99.90;;;;;;4592028;19;20335;-34
2022/07/20 03:03:43;;;;;;;;;;;17.90;99.90;;;;;;4591733;19;19925;-32
2022/07/20 03:05:14;;;;;;;;;;;17.90;99.90;;;;;;4591498;19;19911;-32
2022/07/20 03:06:45;;;;;;;;;;;17.90;99.90;;;;;;4591836;19;19919;-32
2022/07/20 03:08:16;;;;;;;;;;;17.90;99.90;;;;;;4591602;19;19914;-32
2022/07/20 03:09:47;;;;;;;;;;;17.90;99.90;;;;;;4591568;19;20009;-32
2022/07/20 03:11:18;;;;;;;;;;;17.90;99.90;;;;;;4591475;19;20286;-32
2022/07/20 03:12:49;;;;;;;;;;;17.90;99.90;;;;;;4591507;19;19951;-32
2022/07/20 03:14:20;;;;;;;;;;;17.90;99.90;;;;;;4591937;19;19915;-32
2022/07/20 03:15:51;;;;;;;;;;;17.90;99.90;;;;;;4591290;19;19970;-32
2022/07/20 03:17:22;;;;;;;;;;;17.90;99.90;;;;;;4591002;19;19935;-32
2022/07/20 03:18:54;;;;;;;;;;;17.90;99.90;;;;;;4590731;19;19933;-32
2022/07/20 03:20:26;;;;;;;;;;;17.90;99.90;;;;;;4589178;19;19923;-32
2022/07/20 03:21:56;;;;;;;;;;;17.90;99.90;;;;;;4590861;19;20376;-32
2022/07/20 03:23:28;;;;;;;;;;;17.90;99.90;;;;;;4591506;19;19918;-33
2022/07/20 03:24:59;;;;;;;;;;;17.90;99.90;;;;;;4591624;19;19935;-33
2022/07/20 03:26:30;;;;;;;;;;;17.90;99.90;;;;;;4591353;19;19919;-34
2022/07/20 03:28:01;;;;;;;;;;;17.90;99.90;;;;;;4590951;19;19915;-32
2022/07/20 03:29:32;;;;;;;;;;;17.90;99.90;;;;;;4591472;19;19925;-32
2022/07/20 03:31:03;;;;;;;;;;;17.90;99.90;;;;;;4590112;19;19915;-33
2022/07/20 03:32:34;;;;;;;;;;;17.90;99.90;;;;;;4590563;19;20321;-32
2022/07/20 03:34:05;;;;;;;;;;;17.90;99.90;;;;;;4591072;19;19907;-32
2022/07/20 03:35:36;;;;;;;;;;;17.90;99.90;;;;;;4591498;19;19919;-32
2022/07/20 03:37:07;;;;;;;;;;;17.90;99.90;;;;;;4589911;19;20293;-32
2022/07/20 03:38:38;;;;;;;;;;;18.00;99.90;;;;;;4590311;19;19926;-32
2022/07/20 03:40:09;;;;;;;;;;;18.00;99.90;;;;;;4590257;19;19911;-32
2022/07/20 03:41:40;;;;;;;;;;;18.00;99.90;;;;;;4591615;19;19966;-31
2022/07/20 03:43:11;;;;;;;;;;;18.00;99.90;;;;;;4590187;19;19938;-33
2022/07/20 03:44:42;;;;;;;;;;;18.00;99.90;;;;;;4589858;19;19919;-31
2022/07/20 03:46:17;;;;;;;;;;;18.00;99.90;;;;;;4590643;19;19932;-33
2022/07/20 03:47:48;;;;;;;;;;;18.00;99.90;;;;;;4591088;19;20325;-34
2022/07/20 03:49:19;;;;;;;;;;;18.00;99.90;;;;;;4590830;19;19919;-33
2022/07/20 03:50:50;;;;;;;;;;;18.00;99.90;;;;;;4590841;19;19918;-32
2022/07/20 03:52:21;;;;;;;;;;;18.00;99.90;;;;;;4595164;19;19942;-32
2022/07/20 03:53:52;;;;;;;;;;;18.00;99.90;;;;;;4594545;19;19915;-32
2022/07/20 03:55:23;;;;;;;;;;;18.10;99.90;;;;;;4594474;19;19957;-31
2022/07/20 03:56:54;;;;;;;;;;;18.00;99.90;;;;;;4593055;19;19919;-34
2022/07/20 03:58:25;;;;;;;;;;;18.10;99.90;;;;;;4595202;19;19922;-32
2022/07/20 03:59:56;;;;;;;;;;;18.10;99.90;;;;;;4594305;19;20258;-32
2022/07/20 04:01:27;;;;;;;;;;;18.10;99.90;;;;;;4595268;19;19931;-32
2022/07/20 04:02:58;;;;;;;;;;;18.10;99.90;;;;;;4595179;19;19922;-32
2022/07/20 04:04:29;;;;;;;;;;;18.10;99.90;;;;;;4596048;19;20317;-32
2022/07/20 04:06:00;;;;;;;;;;;18.10;99.90;;;;;;4593958;19;19986;-31
2022/07/20 04:07:31;;;;;;;;;;;18.20;99.90;;;;;;4595057;19;19911;-32
2022/07/20 04:09:02;;;;;;;;;;;18.10;99.90;;;;;;4595190;19;19926;-32
2022/07/20 04:10:34;;;;;;;;;;;18.20;99.90;;;;;;4595522;19;20349;-33
2022/07/20 04:12:05;;;;;;;;;;;18.20;99.90;;;;;;4595062;19;19943;-32
2022/07/20 04:13:36;;;;;;;;;;;18.10;99.90;;;;;;4595132;19;19930;-32
2022/07/20 04:15:08;;;;;;;;;;;18.10;99.90;;;;;;4595657;19;19929;-33
2022/07/20 04:16:38;;;;;;;;;;;18.20;99.90;;;;;;4594634;19;20269;-31
2022/07/20 04:18:09;;;;;;;;;;;18.20;99.90;;;;;;4597380;19;19914;-33
2022/07/20 04:19:41;;;;;;;;;;;18.20;99.90;;;;;;4594178;19;19927;-31
2022/07/20 04:21:12;;;;;;;;;;;18.20;99.90;;;;;;4593739;19;19915;-32
2022/07/20 04:22:43;;;;;;;;;;;18.20;99.90;;;;;;4594476;19;20256;-32
2022/07/20 04:24:13;;;;;;;;;;;18.20;99.90;;;;;;4594908;19;19926;-32
2022/07/20 04:25:45;;;;;;;;;;;18.20;99.90;;;;;;4594914;19;19927;-32
2022/07/20 04:27:16;;;;;;;;;;;18.30;99.90;;;;;;4594389;19;19952;-33
2022/07/20 04:28:47;;;;;;;;;;;18.20;99.90;;;;;;4594249;19;19918;-32
2022/07/20 04:30:17;;;;;;;;;;;18.30;99.90;;;;;;4594588;19;19915;-32
2022/07/20 04:31:49;;;;;;;;;;;18.30;99.90;;;;;;4594670;19;20229;-31
2022/07/20 04:33:20;;;;;;;;;;;18.30;99.90;;;;;;4595084;19;19939;-32
2022/07/20 04:34:51;;;;;;;;;;;18.30;99.90;;;;;;4594659;19;19910;-32
2022/07/20 04:36:23;;;;;;;;;;;18.30;99.90;;;;;;4594908;19;19918;-32
2022/07/20 04:37:54;;;;;;;;;;;18.40;99.90;;;;;;4594658;19;20409;-32
2022/07/20 04:39:26;;;;;;;;;;;18.30;99.90;;;;;;4594650;19;20309;-34
2022/07/20 04:40:57;;;;;;;;;;;18.40;99.90;;;;;;4594567;19;20005;-32
2022/07/20 04:42:28;;;;;;;;;;;18.40;99.90;;;;;;4596035;19;19938;-33
2022/07/20 04:43:59;;;;;;;;;;;18.40;99.90;;;;;;4596983;19;19915;-34
2022/07/20 04:45:30;;;;;;;;;;;18.40;99.90;;;;;;4593232;19;19973;-33
2022/07/20 04:47:01;;;;;;;;;;;18.40;99.90;;;;;;4593380;19;19915;-32
2022/07/20 04:48:32;;;;;;;;;;;18.40;99.90;;;;;;4593849;19;19928;-32
2022/07/20 04:50:03;;;;;;;;;;;18.50;99.90;;;;;;4594769;19;19918;-32
2022/07/20 04:51:35;;;;;;;;;;;18.50;99.90;;;;;;4594198;19;19918;-32
2022/07/20 04:53:05;;;;;;;;;;;18.50;99.90;;;;;;4594745;19;19922;-33
2022/07/20 04:54:36;;;;;;;;;;;18.50;99.90;;;;;;4596078;19;19921;-32
2022/07/20 04:56:09;;;;;;;;;;;18.50;99.90;;;;;;4594154;19;19937;-32
2022/07/20 04:57:40;;;;;;;;;;;18.50;99.90;;;;;;4594217;19;19922;-33
2022/07/20 04:59:11;;;;;;;;;;;18.50;99.90;;;;;;4596115;19;21089;-32
2022/07/20 05:00:42;;;;;;;;;;;18.50;99.90;;;;;;4595831;19;19907;-32
2022/07/20 05:02:13;;;;;;;;;;;18.50;99.90;;;;;;4596068;19;20251;-33
2022/07/20 05:03:44;;;;;;;;;;;18.60;99.90;;;;;;4593826;19;19926;-32
2022/07/20 05:05:15;;;;;;;;;;;18.60;99.90;;;;;;4594374;19;20297;-31
2022/07/20 05:06:46;;;;;;;;;;;18.60;99.90;;;;;;4594528;19;19911;-33
2022/07/20 05:08:17;;;;;;;;;;;18.60;99.90;;;;;;4593731;19;20332;-33
2022/07/20 05:09:48;;;;;;;;;;;18.60;99.90;;;;;;4592936;19;19919;-33
2022/07/20 05:11:19;;;;;;;;;;;18.70;99.90;;;;;;4593379;19;20376;-32
2022/07/20 05:12:50;;;;;;;;;;;18.70;99.90;;;;;;4593773;19;19919;-32
2022/07/20 05:14:21;;;;;;;;;;;18.70;99.90;;;;;;4593804;19;20034;-32
2022/07/20 05:15:52;;;;;;;;;;;18.70;99.90;;;;;;4593841;19;19934;-32
2022/07/20 05:17:23;;;;;;;;;;;18.70;99.90;;;;;;4592516;19;19930;-32
2022/07/20 05:18:54;;;;;;;;;;;18.70;99.90;;;;;;4592940;19;19938;-33
2022/07/20 05:20:25;;;;;;;;;;;18.70;99.90;;;;;;4592158;19;19911;-32
2022/07/20 05:21:57;;;;;;;;;;;18.80;99.90;;;;;;4594277;19;19926;-33
2022/07/20 05:23:28;;;;;;;;;;;18.80;99.90;;;;;;4594430;19;19918;-33
2022/07/20 05:24:59;;;;;;;;;;;18.80;99.90;;;;;;4593386;19;20261;-33
2022/07/20 05:26:30;;;;;;;;;;;18.80;99.90;;;;;;4593488;19;19945;-33
2022/07/20 05:28:01;;;;;;;;;;;18.80;99.90;;;;;;4593180;19;19922;-33
2022/07/20 05:29:31;;;;;;;;;;;18.80;99.90;;;;;;4594524;19;20230;-33
2022/07/20 05:31:02;;;;;;;;;;;18.80;99.90;;;;;;4592687;19;19919;-32
2022/07/20 05:32:34;;;;;;;;;;;18.90;99.90;;;;;;4593170;19;19915;-32
2022/07/20 05:34:05;;;;;;;;;;;18.90;99.90;;;;;;4592986;19;19941;-32
2022/07/20 05:35:35;;;;;;;;;;;18.90;99.90;;;;;;4591182;19;19922;-33
2022/07/20 05:37:06;;;;;;;;;;;18.90;99.90;;;;;;4588893;19;19919;-33
2022/07/20 05:38:38;;;;;;;;;;;19.00;99.90;;;;;;4593036;19;19927;-33
2022/07/20 05:40:09;;;;;;;;;;;19.00;99.90;;;;;;4592835;19;19915;-32
2022/07/20 05:41:40;;;;;;;;;;;19.00;99.90;;;;;;4593203;19;19922;-32
2022/07/20 05:43:11;;;;;;;;;;;19.10;99.90;;;;;;4592136;19;20354;-32
2022/07/20 05:44:42;;;;;;;;;;;19.10;99.90;;;;;;4592367;19;19925;-32
2022/07/20 05:46:13;;;;;;;;;;;19.10;99.90;;;;;;4594245;19;20608;-31
2022/07/20 05:47:44;;;;;;;;;;;19.10;99.90;;;;;;4593139;19;19975;-33
2022/07/20 05:49:15;;;;;;;;;;;19.10;99.90;;;;;;4592314;19;20277;-34
2022/07/20 05:50:46;;;;;;;;;;;19.20;99.90;;;;;;4593682;19;20425;-32
2022/07/20 05:52:18;;;;;;;;;;;19.20;99.90;;;;;;4592153;19;19919;-32
2022/07/20 05:53:49;;;;;;;;;;;19.20;99.90;;;;;;4592872;19;19923;-32
2022/07/20 05:55:20;;;;;;;;;;;19.20;99.90;;;;;;4591906;19;20325;-32
2022/07/20 05:56:52;;;;;;;;;;;19.30;99.90;;;;;;4592669;19;19974;-33
2022/07/20 05:58:23;;;;;;;;;;;19.30;99.90;;;;;;4590678;19;19922;-31
2022/07/20 05:59:53;;;;;;;;;;;19.40;99.90;;;;;;4592415;19;19923;-31
2022/07/20 06:01:24;;;;;;;;;;;19.30;99.90;;;;;;4592659;19;19940;-33
2022/07/20 06:02:55;;;;;;;;;;;19.30;99.90;;;;;;4593899;19;19992;-33
2022/07/20 06:04:26;;;;;;;;;;;19.20;99.90;;;;;;4593764;19;19915;-33
2022/07/20 06:05:57;;;;;;;;;;;19.20;99.90;;;;;;4591595;19;19984;-33
2022/07/20 06:07:28;;;;;;;;;;;19.20;99.90;;;;;;4593409;19;19925;-33
2022/07/20 06:08:59;;;;;;;;;;;19.20;99.90;;;;;;4592140;19;19922;-32
2022/07/20 06:10:31;;;;;;;;;;;19.20;99.90;;;;;;4588982;19;19911;-33
2022/07/20 06:12:02;;;;;;;;;;;19.20;99.90;;;;;;4591755;19;19947;-33
2022/07/20 06:13:33;;;;;;;;;;;19.20;99.90;;;;;;4591200;19;19995;-33
2022/07/20 06:15:04;;;;;;;;;;;19.20;99.90;;;;;;4592682;19;19919;-33
2022/07/20 06:16:35;;;;;;;;;;;19.20;99.90;;;;;;4592425;19;19942;-33
2022/07/20 06:18:07;;;;;;;;;;;19.20;99.90;;;;;;4591936;19;19982;-33
2022/07/20 06:19:41;;;;;;;;;;;19.20;99.90;;;;;;4590945;19;19933;-33
2022/07/20 06:21:14;;;;;;;;;;;19.20;99.90;;;;;;4592630;19;19937;-33
2022/07/20 06:22:45;;;;;;;;;;;19.20;99.90;;;;;;4591371;19;19936;-33
2022/07/20 06:24:16;;;;;;;;;;;19.30;99.90;;;;;;4590711;19;19918;-32
2022/07/20 06:25:47;;;;;;;;;;;19.30;99.90;;;;;;4593073;19;19931;-33
2022/07/20 06:27:18;;;;;;;;;;;19.30;99.90;;;;;;4591533;19;19922;-33
2022/07/20 06:28:49;;;;;;;;;;;19.30;99.90;;;;;;4593012;19;20389;-33
2022/07/20 06:30:20;;;;;;;;;;;19.30;99.90;;;;;;4590867;19;19930;-31
2022/07/20 06:31:51;;;;;;;;;;;19.40;99.90;;;;;;4591958;19;20253;-32
2022/07/20 06:33:22;;;;;;;;;;;19.30;99.90;;;;;;4591941;19;19922;-32
2022/07/20 06:34:53;;;;;;;;;;;19.40;99.90;;;;;;4591557;19;19990;-31
2022/07/20 06:36:24;;;;;;;;;;;19.40;99.90;;;;;;4592117;19;19919;-33
2022/07/20 06:37:56;;;;;;;;;;;19.40;99.90;;;;;;4590681;19;19990;-33
2022/07/20 06:39:27;;;;;;;;;;;19.40;99.90;;;;;;4590112;19;19911;-32
2022/07/20 06:40:58;;;;;;;;;;;19.40;99.90;;;;;;4592631;19;19942;-33
2022/07/20 06:42:29;;;;;;;;;;;19.40;99.90;;;;;;4591590;19;19930;-33
2022/07/20 06:44:00;;;;;;;;;;;19.50;99.90;;;;;;4590826;19;19919;-33
2022/07/20 06:45:31;;;;;;;;;;;19.50;99.90;;;;;;4591004;19;19974;-33
2022/07/20 06:47:02;;;;;;;;;;;19.50;99.90;;;;;;4591058;19;19915;-32
2022/07/20 06:48:36;;;;;;;;;;;19.60;99.90;;;;;;4591475;19;19930;-33
2022/07/20 06:50:07;;;;;;;;;;;19.50;99.90;;;;;;4590620;19;20321;-34
2022/07/20 06:51:39;;;;;;;;;;;19.50;99.90;;;;;;4592357;19;19990;-33
2022/07/20 06:53:10;;;;;;;;;;;19.50;99.90;;;;;;4591222;19;19922;-34
2022/07/20 06:54:41;;;;;;;;;;;19.60;99.90;;;;;;4591501;19;20325;-32
2022/07/20 06:56:12;;;;;;;;;;;19.60;99.90;;;;;;4590823;19;19922;-33
2022/07/20 06:57:44;;;;;;;;;;;19.60;99.90;;;;;;4592755;19;19923;-34
2022/07/20 06:59:15;;;;;;;;;;;19.60;99.90;;;;;;4591979;19;20317;-33
2022/07/20 07:00:49;;;;;;;;;;;19.70;99.90;;;;;;4591305;19;19926;-33
2022/07/20 07:02:20;;;;;;;;;;;19.60;99.90;;;;;;4591175;19;19918;-33
2022/07/20 07:03:51;;;;;;;;;;;19.70;99.90;;;;;;4589986;19;19986;-33
2022/07/20 07:05:22;;;;;;;;;;;19.70;99.90;;;;;;4590431;19;19929;-33
2022/07/20 07:06:53;;;;;;;;;;;19.70;99.90;;;;;;4590833;19;19918;-34
2022/07/20 07:08:24;;;;;;;;;;;19.80;99.90;;;;;;4590588;19;19910;-33
2022/07/20 07:09:55;;;;;;;;;;;19.80;99.90;;;;;;4590082;19;20245;-35
2022/07/20 07:11:26;;;;;;;;;;;19.90;99.90;;;;;;4589977;19;19970;-33
2022/07/20 07:12:57;;;;;;;;;;;19.80;99.90;;;;;;4591946;19;19925;-33
2022/07/20 07:14:28;;;;;;;;;;;19.90;99.90;;;;;;4591247;19;19918;-34
2022/07/20 07:15:59;;;;;;;;;;;19.90;99.90;;;;;;4592552;19;19925;-33
2022/07/20 07:17:30;;;;;;;;;;;19.90;99.90;;;;;;4591328;19;19983;-33
2022/07/20 07:19:01;;;;;;;;;;;19.90;99.90;;;;;;4591648;19;20585;-34
2022/07/20 07:20:32;;;;;;;;;;;19.90;99.90;;;;;;4590101;19;19915;-34
2022/07/20 07:22:04;;;;;;;;;;;20.00;99.90;;;;;;4589749;19;19932;-33
2022/07/20 07:23:35;;;;;;;;;;;20.00;99.90;;;;;;4590809;19;20241;-35
2022/07/20 07:25:06;;;;;;;;;;;20.00;99.90;;;;;;4591004;19;19937;-33
2022/07/20 07:26:37;;;;;;;;;;;20.00;99.90;;;;;;4590373;19;20336;-33
2022/07/20 07:28:08;;;;;;;;;;;20.10;99.90;;;;;;4591156;19;19982;-33
2022/07/20 07:29:39;;;;;;;;;;;20.10;99.90;;;;;;4591119;19;19922;-33
2022/07/20 07:31:10;;;;;;;;;;;20.20;99.90;;;;;;4589583;19;19917;-33
2022/07/20 07:32:41;;;;;;;;;;;20.20;99.90;;;;;;4589704;19;19922;-33
2022/07/20 07:34:12;;;;;;;;;;;20.20;99.90;;;;;;4591626;19;19939;-33
2022/07/20 07:35:43;;;;;;;;;;;20.10;99.90;;;;;;4589867;19;19914;-34
2022/07/20 07:37:14;;;;;;;;;;;20.00;99.90;;;;;;4589463;19;20358;-33
2022/07/20 07:38:45;;;;;;;;;;;20.00;99.90;;;;;;4590338;19;19915;-33
2022/07/20 07:40:16;;;;;;;;;;;20.10;99.90;;;;;;4589231;19;19914;-33
2022/07/20 07:41:47;;;;;;;;;;;20.20;99.90;;;;;;4590254;19;20241;-32
2022/07/20 07:43:18;;;;;;;;;;;20.20;99.90;;;;;;4590241;19;19978;-34
2022/07/20 07:44:49;;;;;;;;;;;20.20;99.90;;;;;;4589169;19;20380;-33
2022/07/20 07:46:20;;;;;;;;;;;20.20;99.90;;;;;;4591119;19;19966;-33
2022/07/20 07:47:51;;;;;;;;;;;20.30;99.90;;;;;;4590356;19;19926;-34
2022/07/20 07:49:23;;;;;;;;;;;20.30;99.90;;;;;;4591312;19;19922;-34
2022/07/20 07:50:53;;;;;;;;;;;20.30;99.90;;;;;;4591024;19;19922;-33
2022/07/20 07:52:25;;;;;;;;;;;20.40;99.90;;;;;;4590470;19;19915;-34
2022/07/20 07:53:56;;;;;;;;;;;20.40;99.90;;;;;;4590181;19;19923;-34
2022/07/20 07:55:27;;;;;;;;;;;20.50;99.90;;;;;;4589103;19;19915;-34
2022/07/20 07:56:58;;;;;;;;;;;20.50;99.90;;;;;;4590313;19;20007;-33
2022/07/20 07:58:29;;;;;;;;;;;20.50;99.90;;;;;;4589481;19;19935;-33
2022/07/20 08:00:00;;;;;;;;;;;20.40;99.90;;;;;;4590966;19;20242;-34
2022/07/20 08:01:34;;;;;;;;;;;20.50;99.90;;;;;;4588273;19;19927;-33
2022/07/20 08:03:05;;;;;;;;;;;20.50;99.90;;;;;;4588798;19;20281;-33
2022/07/20 08:04:36;;;;;;;;;;;20.60;99.90;;;;;;4588268;19;19926;-33
2022/07/20 08:06:07;;;;;;;;;;;20.60;99.90;;;;;;4589303;19;19925;-34
2022/07/20 08:07:40;;;;;;;;;;;20.60;99.90;;;;;;4587750;19;20005;-34
2022/07/20 08:09:11;;;;;;;;;;;20.60;99.90;;;;;;4589101;19;19922;-35
2022/07/20 08:10:42;;;;;;;;;;;20.60;99.90;;;;;;4588053;19;20017;-34
2022/07/20 08:12:13;;;;;;;;;;;20.60;99.90;;;;;;4587319;19;19914;-35
2022/07/20 08:13:44;;;;;;;;;;;20.60;99.90;;;;;;4589227;19;20417;-33
2022/07/20 08:15:15;;;;;;;;;;;20.70;99.90;;;;;;4587453;19;19938;-35
2022/07/20 08:16:47;;;;;;;;;;;20.70;99.90;;;;;;4588228;19;19939;-34
2022/07/20 08:18:18;;;;;;;;;;;20.70;99.90;;;;;;4586898;19;19919;-34
2022/07/20 08:19:49;;;;;;;;;;;20.60;99.90;;;;;;4588312;19;19919;-33
2022/07/20 08:21:20;;;;;;;;;;;20.70;99.90;;;;;;4587705;19;20027;-33
2022/07/20 08:22:52;;;;;;;;;;;20.70;99.90;;;;;;4587778;19;20415;-33
2022/07/20 08:24:22;;;;;;;;;;;20.80;99.90;;;;;;4588740;19;19919;-33
2022/07/20 08:25:53;;;;;;;;;;;20.80;99.90;;;;;;4587251;19;19939;-32
2022/07/20 08:27:24;;;;;;;;;;;20.80;99.90;;;;;;4587985;19;20339;-33
2022/07/20 08:28:55;;;;;;;;;;;20.80;99.90;;;;;;4588051;19;19960;-33
2022/07/20 08:30:26;;;;;;;;;;;20.80;99.90;;;;;;4588462;19;19918;-34
2022/07/20 08:31:57;;;;;;;;;;;20.80;99.90;;;;;;4587189;19;19910;-33
2022/07/20 08:33:36;;;;;;;;;;;20.90;99.90;;;;;;4587893;19;20242;-33
2022/07/20 08:35:11;;;;;;;;;;;20.90;99.90;;;;;;4590523;19;20375;-32
2022/07/20 08:36:44;;;;;;;;;;;20.90;99.90;;;;;;4589684;19;19922;-34
2022/07/20 08:38:15;;;;;;;;;;;21.00;99.90;;;;;;4593671;19;19932;-32
2022/07/20 08:40:02;;;;;;;;;;;21.00;99.90;;;;;;4592525;19;19925;-30
2022/07/20 08:41:35;;;;;;;;;;;21.00;99.90;;;;;;4594526;19;20364;-33
2022/07/20 08:43:06;;;;;;;;;;;21.10;99.90;;;;;;4596057;19;19922;-31
2022/07/20 08:44:39;;;;;;;;;;;21.00;99.90;;;;;;4595821;19;19918;-32
2022/07/20 08:46:11;;;;;;;;;;;21.00;99.90;;;;;;4594575;19;19935;-33
2022/07/20 08:47:42;;;;;;;;;;;21.10;99.90;;;;;;4594521;19;20271;-33
2022/07/20 08:49:13;;;;;;;;;;;21.10;99.90;;;;;;4595975;19;20099;-32
2022/07/20 08:50:44;;;;;;;;;;;21.00;99.90;;;;;;4594183;19;19915;-34
2022/07/20 08:52:16;;;;;;;;;;;21.00;99.90;;;;;;4595733;19;19946;-32
2022/07/20 08:53:47;;;;;;;;;;;21.10;99.90;;;;;;4593547;19;19914;-32